createdAt,value
2019-02-19T00:01:28.284Z,100162.13
2019-02-19T00:05:35.090Z,100164.83
2019-02-19T00:09:41.959Z,100165.21
2019-02-19T00:13:48.837Z,100159.70
2019-02-19T00:17:55.706Z,100171.55
2019-02-19T00:22:02.701Z,100163.34
2019-02-19T00:26:26.815Z,100162.91
2019-02-19T00:30:33.622Z,100161.33
2019-02-19T00:34:40.455Z,100161.24
2019-02-19T00:38:47.246Z,100166.69
2019-02-19T00:42:54.065Z,100164.70
2019-02-19T00:47:00.940Z,100157.14
2019-02-19T00:51:07.815Z,100156.33
2019-02-19T00:55:14.720Z,100161.90
2019-02-19T00:59:21.691Z,100163.86
2019-02-19T01:03:28.506Z,100166.63
2019-02-19T01:07:35.347Z,100165.91
2019-02-19T01:11:42.168Z,100166.84
2019-02-19T01:15:49.000Z,100165.84
2019-02-19T01:19:55.836Z,100161.52
2019-02-19T01:24:02.641Z,100162.15
2019-02-19T01:28:09.892Z,100164.78
2019-02-19T01:32:16.765Z,100159.32
2019-02-19T01:36:23.588Z,100170.03
2019-02-19T01:40:30.428Z,100169.52
2019-02-19T01:44:37.292Z,100166.69
2019-02-19T01:48:44.134Z,100163.03
2019-02-19T01:52:51.055Z,100159.03
2019-02-19T01:56:57.982Z,100161.45
2019-02-19T02:01:04.847Z,100158.80
2019-02-19T02:05:11.913Z,100153.33
2019-02-19T02:09:18.746Z,100158.19
2019-02-19T02:13:25.715Z,100157.82
2019-02-19T02:17:32.604Z,100157.82
2019-02-19T02:21:39.561Z,100158.17
2019-02-19T02:25:46.425Z,100151.88
2019-02-19T02:29:53.278Z,100149.23
2019-02-19T02:34:00.137Z,100149.39
2019-02-19T02:38:07.013Z,100136.29
2019-02-19T02:42:13.873Z,100141.08
2019-02-19T02:46:21.809Z,100136.42
2019-02-19T02:50:28.616Z,100135.91
2019-02-19T02:54:35.478Z,100130.66
2019-02-19T02:58:42.317Z,100124.94
2019-02-19T03:02:49.182Z,100129.34
2019-02-19T03:07:04.365Z,100129.41
2019-02-19T03:11:11.236Z,100130.06
2019-02-19T03:15:18.426Z,100131.23
2019-02-19T03:19:25.270Z,100133.20
2019-02-19T03:23:32.084Z,100133.70
2019-02-19T03:27:38.923Z,100146.69
2019-02-19T03:31:45.769Z,100144.52
2019-02-19T03:35:52.680Z,100141.19
2019-02-19T03:39:59.511Z,100146.47
2019-02-19T03:44:06.371Z,100144.33
2019-02-19T03:48:13.208Z,100151.39
2019-02-19T03:52:20.077Z,100159.02
2019-02-19T03:56:26.870Z,100162.16
2019-02-19T04:00:33.755Z,100158.70
2019-02-19T04:04:40.570Z,100155.37
2019-02-19T04:08:47.487Z,100157.39
2019-02-19T04:12:54.320Z,100161.16
2019-02-19T04:17:01.139Z,100162.03
2019-02-19T04:21:09.154Z,100158.73
2019-02-19T04:25:16.077Z,100158.81
2019-02-19T04:29:22.913Z,100158.98
2019-02-19T04:33:29.895Z,100168.03
2019-02-19T04:37:36.684Z,100166.39
2019-02-19T04:41:43.532Z,100172.92
2019-02-19T04:45:50.369Z,100175.63
2019-02-19T04:49:57.289Z,100171.02
2019-02-19T04:54:04.168Z,100175.48
2019-02-19T04:58:10.973Z,100174.62
2019-02-19T05:02:17.861Z,100171.05
2019-02-19T05:06:24.767Z,100176.75
2019-02-19T05:10:31.619Z,100178.24
2019-02-19T05:14:38.437Z,100171.64
2019-02-19T05:18:45.381Z,100171.33
2019-02-19T05:22:52.208Z,100176.36
2019-02-19T05:27:00.110Z,100177.52
2019-02-19T05:31:06.991Z,100173.20
2019-02-19T05:35:13.882Z,100176.16
2019-02-19T05:39:20.779Z,100190.00
2019-02-19T05:43:27.830Z,100189.64
2019-02-19T05:47:34.684Z,100192.44
2019-02-19T05:51:44.245Z,100191.58
2019-02-19T05:55:51.111Z,100187.77
2019-02-19T05:59:57.948Z,100187.89
2019-02-19T06:04:06.010Z,100192.27
2019-02-19T06:08:12.983Z,100183.63
2019-02-19T06:12:19.811Z,100186.27
2019-02-19T06:16:26.701Z,100185.37
2019-02-19T06:20:33.633Z,100186.37
2019-02-19T06:24:40.540Z,100203.52
2019-02-19T06:28:47.444Z,100208.15
2019-02-19T06:32:54.302Z,100211.77
2019-02-19T06:37:01.355Z,100218.30
2019-02-19T06:41:08.330Z,100218.48
2019-02-19T06:45:15.351Z,100222.89
2019-02-19T06:49:22.314Z,100229.12
2019-02-19T06:53:29.340Z,100235.55
2019-02-19T06:57:36.192Z,100249.39
2019-02-19T07:01:53.888Z,100246.52
2019-02-19T07:06:00.763Z,100254.42
2019-02-19T07:10:07.891Z,100263.62
2019-02-19T07:14:14.871Z,100266.86
2019-02-19T07:18:21.654Z,100269.50
2019-02-19T07:22:28.547Z,100273.25
2019-02-19T07:26:35.401Z,100266.05
2019-02-19T07:30:42.268Z,100270.20
2019-02-19T07:34:49.239Z,100273.98
2019-02-19T07:38:56.058Z,100296.16
2019-02-19T07:43:03.100Z,100295.88
2019-02-19T07:47:10.155Z,100292.62
2019-02-19T07:51:17.015Z,100290.81
2019-02-19T07:55:24.005Z,100303.46
2019-02-19T07:59:31.000Z,100304.86
2019-02-19T08:03:38.091Z,100301.23
2019-02-19T08:07:46.795Z,100311.58
2019-02-19T08:12:12.577Z,100331.09
2019-02-19T08:16:19.657Z,100343.26
2019-02-19T08:20:29.240Z,100348.34
2019-02-19T08:24:36.317Z,100341.94
2019-02-19T08:28:43.381Z,100355.13
2019-02-19T08:32:50.288Z,100356.25
2019-02-19T08:36:57.394Z,100366.11
2019-02-19T08:41:04.388Z,100369.11
2019-02-19T08:45:11.588Z,100368.83
2019-02-19T08:49:18.477Z,100373.95
2019-02-19T08:53:25.365Z,100383.28
2019-02-19T08:57:32.198Z,100387.27
2019-02-19T09:01:39.040Z,100397.48
2019-02-19T09:05:45.934Z,100405.23
2019-02-19T09:09:54.073Z,100405.56
2019-02-19T09:14:00.965Z,100411.67
2019-02-19T09:18:07.891Z,100425.83
2019-02-19T09:22:14.754Z,100421.20
2019-02-19T09:26:21.607Z,100409.36
2019-02-19T09:30:28.447Z,100420.89
2019-02-19T09:34:35.333Z,100420.23
2019-02-19T09:38:42.190Z,100418.58
2019-02-19T09:42:49.104Z,100421.22
2019-02-19T09:46:56.037Z,100420.05
2019-02-19T09:51:05.057Z,100411.17
2019-02-19T09:55:12.803Z,100417.58
2019-02-19T09:59:19.702Z,100410.00
2019-02-19T10:03:27.747Z,100409.69
2019-02-19T10:07:34.985Z,100421.34
2019-02-19T10:11:41.906Z,100418.08
2019-02-19T10:15:48.814Z,100421.86
2019-02-19T10:19:55.719Z,100428.77
2019-02-19T10:24:02.692Z,100433.03
2019-02-19T10:28:09.550Z,100439.92
2019-02-19T10:32:16.530Z,100446.83
2019-02-19T10:36:24.062Z,100448.84
2019-02-19T10:40:32.383Z,100449.83
2019-02-19T10:44:39.252Z,100463.66
2019-02-19T10:48:53.721Z,100463.49
2019-02-19T10:53:00.859Z,100465.80
2019-02-19T10:57:10.793Z,100478.14
2019-02-19T11:01:17.674Z,100475.50
2019-02-19T11:05:24.618Z,100473.52
2019-02-19T11:09:31.453Z,100474.52
2019-02-19T11:13:38.373Z,100465.58
2019-02-19T11:17:45.270Z,100461.08
2019-02-19T11:21:52.198Z,100455.42
2019-02-19T11:25:59.088Z,100459.84
2019-02-19T11:30:07.508Z,100454.24
2019-02-19T11:34:14.979Z,100456.68
2019-02-19T11:38:21.925Z,100455.05
2019-02-19T11:42:28.811Z,100452.92
2019-02-19T11:46:35.698Z,100445.56
2019-02-19T11:50:42.586Z,100447.74
2019-02-19T11:54:49.373Z,100448.38
2019-02-19T11:58:56.258Z,100449.48
2019-02-19T12:03:03.154Z,100445.64
2019-02-19T12:07:10.292Z,100446.11
2019-02-19T12:11:17.094Z,100434.86
2019-02-19T12:15:23.983Z,100429.64
2019-02-19T12:19:30.850Z,100437.26
2019-02-19T12:23:37.785Z,100428.67
2019-02-19T12:27:44.782Z,100430.50
2019-02-19T12:31:51.684Z,100417.80
2019-02-19T12:35:58.628Z,100425.73
2019-02-19T12:40:05.819Z,100421.44
2019-02-19T12:44:12.810Z,100417.55
2019-02-19T12:48:26.898Z,100413.91
2019-02-19T12:52:33.814Z,100412.36
2019-02-19T12:56:40.864Z,100415.72
2019-02-19T13:00:47.797Z,100402.82
2019-02-19T13:04:54.690Z,100401.46
2019-02-19T13:09:01.917Z,100386.22
2019-02-19T13:13:10.551Z,100398.41
2019-02-19T13:17:17.768Z,100397.97
2019-02-19T13:21:24.790Z,100393.85
2019-02-19T13:25:31.768Z,100380.05
2019-02-19T13:29:38.671Z,100384.57
2019-02-19T13:33:45.661Z,100380.80
2019-02-19T13:37:52.545Z,100390.30
2019-02-19T13:42:00.379Z,100380.53
2019-02-19T13:46:07.322Z,100381.64
2019-02-19T13:50:17.734Z,100379.13
2019-02-19T13:54:29.766Z,100370.52
2019-02-19T13:58:36.658Z,100375.40
2019-02-19T14:02:43.473Z,100353.61
2019-02-19T14:06:50.324Z,100372.72
2019-02-19T14:10:57.234Z,100378.05
2019-02-19T14:15:17.584Z,100374.56
2019-02-19T14:19:41.430Z,100378.64
2019-02-19T14:24:06.419Z,100389.98
2019-02-19T14:28:35.082Z,100391.05
2019-02-19T14:33:06.782Z,100396.58
2019-02-19T14:37:31.445Z,100395.95
2019-02-19T14:42:06.229Z,100408.87
2019-02-19T14:46:30.652Z,100402.35
2019-02-19T14:50:55.255Z,100402.61
2019-02-19T14:55:33.166Z,100393.91
2019-02-19T14:59:58.999Z,100393.51
2019-02-19T15:04:23.702Z,100382.02
2019-02-19T15:08:48.277Z,100390.16
2019-02-19T15:13:20.452Z,100383.73
2019-02-19T15:17:42.420Z,100384.96
2019-02-19T15:22:08.240Z,100382.17
2019-02-19T15:26:45.877Z,100382.91
2019-02-19T15:31:14.926Z,100373.30
2019-02-19T15:35:48.471Z,100376.28
2019-02-19T15:40:29.409Z,100374.42
2019-02-19T15:44:55.269Z,100372.14
2019-02-19T15:49:16.589Z,100383.00
2019-02-19T15:53:40.605Z,100379.77
2019-02-19T15:58:05.345Z,100383.00
2019-02-19T16:02:34.171Z,100381.81
2019-02-19T16:06:47.557Z,100384.02
2019-02-19T16:11:03.066Z,100384.77
2019-02-19T16:15:17.058Z,100382.73
2019-02-19T16:19:38.870Z,100390.44
2019-02-19T16:24:04.735Z,100385.44
2019-02-19T16:28:30.850Z,100388.56
2019-02-19T16:32:55.342Z,100392.97
2019-02-19T16:37:11.549Z,100390.33
2019-02-19T16:41:29.838Z,100380.77
2019-02-19T16:45:44.780Z,100389.42
2019-02-19T16:50:16.681Z,100386.03
2019-02-19T16:54:54.600Z,100393.72
2019-02-19T16:59:17.741Z,100394.48
2019-02-19T17:03:43.529Z,100398.58
2019-02-19T17:07:57.536Z,100403.78
2019-02-19T17:12:18.643Z,100410.80
2019-02-19T17:16:58.053Z,100410.48
2019-02-19T17:21:23.786Z,100420.86
2019-02-19T17:25:52.750Z,100425.12
2019-02-19T17:30:12.698Z,100425.31
2019-02-19T17:34:50.489Z,100432.22
2019-02-19T17:39:34.435Z,100432.18
2019-02-19T17:44:00.053Z,100435.30
2019-02-19T17:48:25.901Z,100438.28
2019-02-19T17:52:58.101Z,100440.96
2019-02-19T17:57:42.227Z,100449.66
2019-02-19T18:02:06.748Z,100450.58
2019-02-19T18:06:38.519Z,100459.05
2019-02-19T18:11:22.956Z,100462.58
2019-02-19T18:15:38.951Z,100468.08
2019-02-19T18:19:46.038Z,100467.35
2019-02-19T18:23:53.243Z,100466.69
2019-02-19T18:28:00.255Z,100482.73
2019-02-19T18:32:07.538Z,100473.59
2019-02-19T18:36:15.097Z,100473.14
2019-02-19T18:40:22.174Z,100480.43
2019-02-19T18:44:29.364Z,100481.44
2019-02-19T18:48:36.431Z,100479.69
2019-02-19T18:52:43.595Z,100483.66
2019-02-19T18:56:50.675Z,100479.59
2019-02-19T19:00:58.541Z,100479.94
2019-02-19T19:05:05.659Z,100487.89
2019-02-19T19:09:14.568Z,100489.56
2019-02-19T19:13:21.823Z,100488.95
2019-02-19T19:17:31.097Z,100500.17
2019-02-19T19:21:40.709Z,100497.42
2019-02-19T19:25:47.849Z,100502.09
2019-02-19T19:29:55.185Z,100506.89
2019-02-19T19:34:03.318Z,100514.34
2019-02-19T19:38:12.433Z,100510.88
2019-02-19T19:42:22.673Z,100521.77
2019-02-19T19:46:30.187Z,100527.72
2019-02-19T19:50:37.568Z,100525.77
2019-02-19T19:54:44.949Z,100531.73
2019-02-19T19:58:52.573Z,100539.97
2019-02-19T20:03:01.586Z,100543.75
2019-02-19T20:07:09.097Z,100543.47
2019-02-19T20:11:16.912Z,100545.60
2019-02-19T20:15:24.921Z,100549.23
2019-02-19T20:19:37.133Z,100542.79
2019-02-19T20:23:45.780Z,100543.20
2019-02-19T20:27:53.380Z,100546.88
2019-02-19T20:32:00.958Z,100549.02
2019-02-19T20:36:11.834Z,100559.07
2019-02-19T20:40:19.389Z,100557.88
2019-02-19T20:44:29.909Z,100566.27
2019-02-19T20:48:37.738Z,100565.67
2019-02-19T20:52:45.329Z,100564.24
2019-02-19T20:57:00.022Z,100567.38
2019-02-19T21:01:08.220Z,100566.25
2019-02-19T21:05:15.763Z,100566.23
2019-02-19T21:09:23.297Z,100570.03
2019-02-19T21:13:35.205Z,100571.02
2019-02-19T21:17:42.275Z,100568.55
2019-02-19T21:21:49.641Z,100566.25
2019-02-19T21:25:57.158Z,100575.64
2019-02-19T21:30:05.041Z,100571.20
2019-02-19T21:34:13.635Z,100571.82
2019-02-19T21:38:20.973Z,100571.16
2019-02-19T21:42:28.621Z,100577.25
2019-02-19T21:46:38.756Z,100575.92
2019-02-19T21:50:46.246Z,100582.98
2019-02-19T21:55:05.489Z,100590.39
2019-02-19T21:59:13.003Z,100587.41
2019-02-19T22:03:20.155Z,100582.94
2019-02-19T22:07:27.405Z,100590.84
2019-02-19T22:11:34.608Z,100581.93
2019-02-19T22:15:42.488Z,100584.36
2019-02-19T22:19:49.575Z,100585.69
2019-02-19T22:23:56.750Z,100585.35
2019-02-19T22:28:03.727Z,100589.26
2019-02-19T22:32:11.831Z,100581.22
2019-02-19T22:36:19.032Z,100583.33
2019-02-19T22:40:26.106Z,100580.36
2019-02-19T22:44:33.226Z,100584.58
2019-02-19T22:48:40.204Z,100589.34
2019-02-19T22:52:47.032Z,100589.52
2019-02-19T22:56:55.263Z,100590.14
2019-02-19T23:01:12.450Z,100591.42
2019-02-19T23:05:20.854Z,100595.38
2019-02-19T23:09:33.500Z,100600.11
2019-02-19T23:13:49.129Z,100595.61
2019-02-19T23:17:56.250Z,100599.52
2019-02-19T23:22:03.107Z,100605.53
2019-02-19T23:26:09.997Z,100602.00
2019-02-19T23:30:17.132Z,100604.59
2019-02-19T23:34:24.037Z,100610.75
2019-02-19T23:38:30.841Z,100606.27
2019-02-19T23:42:37.749Z,100614.08
2019-02-19T23:46:44.608Z,100611.18
2019-02-19T23:50:51.425Z,100609.48
2019-02-19T23:54:58.209Z,100614.53
2019-02-19T23:59:05.031Z,100612.32
